createdAt,value
2018-02-04T00:00:55.750Z,100536.86
2018-02-04T00:03:24.080Z,100540.66
2018-02-04T00:05:53.751Z,100548.23
2018-02-04T00:08:22.683Z,100558.80
2018-02-04T00:10:50.978Z,100562.75
2018-02-04T00:13:19.282Z,100561.88
2018-02-04T00:15:47.631Z,100558.73
2018-02-04T00:18:15.939Z,100565.81
2018-02-04T00:20:44.251Z,100564.16
2018-02-04T00:23:12.564Z,100563.36
2018-02-04T00:25:40.866Z,100571.89
2018-02-04T00:28:09.692Z,100569.58
2018-02-04T00:30:38.169Z,100573.01
2018-02-04T00:33:06.473Z,100572.37
2018-02-04T00:35:34.758Z,100572.16
2018-02-04T00:38:03.145Z,100570.86
2018-02-04T00:40:31.696Z,100579.10
2018-02-04T00:43:00.041Z,100588.23
2018-02-04T00:45:28.408Z,100592.97
2018-02-04T00:47:56.733Z,100594.21
2018-02-04T00:50:25.992Z,100599.39
2018-02-04T00:52:54.630Z,100596.96
2018-02-04T00:55:22.946Z,100600.61
2018-02-04T00:57:51.231Z,100602.48
2018-02-04T01:00:20.045Z,100608.03
2018-02-04T01:02:48.354Z,100609.02
2018-02-04T01:05:16.653Z,100614.04
2018-02-04T01:07:45.068Z,100613.40
2018-02-04T01:10:13.413Z,100617.86
2018-02-04T01:12:41.697Z,100615.29
2018-02-04T01:15:10.208Z,100615.63
2018-02-04T01:17:38.535Z,100616.09
2018-02-04T01:20:07.416Z,100621.08
2018-02-04T01:22:35.725Z,100625.14
2018-02-04T01:25:04.095Z,100621.91
2018-02-04T01:27:32.420Z,100613.63
2018-02-04T01:30:00.798Z,100608.66
2018-02-04T01:32:29.138Z,100611.64
2018-02-04T01:34:57.602Z,100602.55
2018-02-04T01:37:25.942Z,100605.33
2018-02-04T01:39:54.366Z,100614.01
2018-02-04T01:42:22.694Z,100615.52
2018-02-04T01:44:51.146Z,100619.37
2018-02-04T01:47:19.506Z,100623.00
2018-02-04T01:49:47.875Z,100622.75
2018-02-04T01:52:16.458Z,100637.50
2018-02-04T01:54:44.822Z,100640.09
2018-02-04T01:57:13.153Z,100639.98
2018-02-04T01:59:41.415Z,100642.84
2018-02-04T02:02:09.894Z,100645.86
2018-02-04T02:04:38.172Z,100647.53
2018-02-04T02:07:06.564Z,100654.17
2018-02-04T02:09:34.821Z,100662.80
2018-02-04T02:12:03.619Z,100666.63
2018-02-04T02:14:32.114Z,100665.48
2018-02-04T02:17:01.163Z,100668.34
2018-02-04T02:19:30.036Z,100666.11
2018-02-04T02:21:58.830Z,100670.77
2018-02-04T02:24:27.236Z,100658.27
2018-02-04T02:26:56.660Z,100675.34
2018-02-04T02:29:25.098Z,100673.81
2018-02-04T02:31:56.318Z,100672.19
2018-02-04T02:34:27.021Z,100673.42
2018-02-04T02:36:56.762Z,100669.52
2018-02-04T02:39:27.292Z,100675.82
2018-02-04T02:41:55.634Z,100679.97
2018-02-04T02:44:24.206Z,100689.44
2018-02-04T02:46:52.516Z,100690.56
2018-02-04T02:49:20.923Z,100689.70
2018-02-04T02:51:49.320Z,100688.58
2018-02-04T02:54:17.596Z,100692.66
2018-02-04T02:56:45.945Z,100689.06
2018-02-04T02:59:14.211Z,100684.93
2018-02-04T03:01:42.759Z,100692.52
2018-02-04T03:04:11.040Z,100693.31
2018-02-04T03:06:39.413Z,100701.83
2018-02-04T03:09:07.946Z,100701.59
2018-02-04T03:11:36.269Z,100704.78
2018-02-04T03:16:39.174Z,100704.56
2018-02-04T03:19:07.562Z,100694.95
2018-02-04T03:21:35.913Z,100711.05
2018-02-04T03:24:04.279Z,100716.09
2018-02-04T03:26:32.674Z,100729.07
2018-02-04T03:29:01.124Z,100730.92
2018-02-04T03:31:29.414Z,100742.05
2018-02-04T03:33:57.714Z,100744.83
2018-02-04T03:36:26.035Z,100750.77
2018-02-04T03:38:54.363Z,100753.73
2018-02-04T03:41:22.737Z,100759.04
2018-02-04T03:43:51.178Z,100765.11
2018-02-04T03:46:19.485Z,100775.19
2018-02-04T03:48:48.205Z,100774.20
2018-02-04T03:51:16.544Z,100782.63
2018-02-04T03:53:44.830Z,100776.39
2018-02-04T03:56:13.119Z,100784.26
2018-02-04T03:58:41.412Z,100793.75
2018-02-04T04:01:09.713Z,100798.80
2018-02-04T04:03:44.916Z,100806.97
2018-02-04T04:06:13.422Z,100803.80
2018-02-04T04:08:41.824Z,100808.34
2018-02-04T04:11:10.236Z,100818.12
2018-02-04T04:13:38.510Z,100814.09
2018-02-04T04:16:06.991Z,100823.98
2018-02-04T04:18:35.287Z,100823.38
2018-02-04T04:21:03.624Z,100835.14
2018-02-04T04:23:31.927Z,100834.72
2018-02-04T04:26:00.670Z,100832.53
2018-02-04T04:28:28.959Z,100836.38
2018-02-04T04:30:57.466Z,100847.05
2018-02-04T04:33:25.746Z,100846.34
2018-02-04T04:35:54.062Z,100858.54
2018-02-04T04:38:22.381Z,100850.76
2018-02-04T04:40:50.783Z,100859.35
2018-02-04T04:43:19.021Z,100859.09
2018-02-04T04:45:47.362Z,100858.52
2018-02-04T04:48:15.641Z,100873.03
2018-02-04T04:50:43.972Z,100875.31
2018-02-04T04:53:12.252Z,100867.77
2018-02-04T04:55:40.678Z,100883.18
2018-02-04T04:58:08.954Z,100875.40
2018-02-04T05:03:33.101Z,100883.17
2018-02-04T05:06:01.455Z,100888.33
2018-02-04T05:08:29.722Z,100894.13
2018-02-04T05:10:58.458Z,100900.74
2018-02-04T05:13:26.742Z,100901.46
2018-02-04T05:15:55.075Z,100897.42
2018-02-04T05:18:23.474Z,100909.84
2018-02-04T05:20:51.791Z,100908.70
2018-02-04T05:23:20.066Z,100917.80
2018-02-04T05:25:48.730Z,100922.25
2018-02-04T05:28:17.024Z,100928.95
2018-02-04T05:30:45.474Z,100931.13
2018-02-04T05:33:13.763Z,100935.89
2018-02-04T05:35:42.066Z,100942.70
2018-02-04T05:38:10.351Z,100941.44
2018-02-04T05:40:38.679Z,100950.77
2018-02-04T05:43:06.954Z,100948.70
2018-02-04T05:45:35.263Z,100949.75
2018-02-04T05:48:03.559Z,100965.16
2018-02-04T05:50:31.953Z,100961.73
2018-02-04T05:53:00.242Z,100973.23
2018-02-04T05:55:28.655Z,100973.34
2018-02-04T05:57:56.940Z,100983.05
2018-02-04T06:00:25.235Z,100988.84
2018-02-04T06:02:53.890Z,100995.97
2018-02-04T06:05:22.186Z,101003.33
2018-02-04T06:07:50.531Z,101013.05
2018-02-04T06:10:18.884Z,101006.11
2018-02-04T06:12:47.178Z,101014.30
2018-02-04T06:15:15.479Z,101021.84
2018-02-04T06:17:43.765Z,101024.20
2018-02-04T06:20:12.159Z,101031.36
2018-02-04T06:22:40.699Z,101041.48
2018-02-04T06:25:09.047Z,101040.30
2018-02-04T06:27:37.318Z,101043.33
2018-02-04T06:30:05.660Z,101049.63
2018-02-04T06:32:33.996Z,101050.55
2018-02-04T06:35:05.166Z,101060.70
2018-02-04T06:37:33.622Z,101067.30
2018-02-04T06:40:02.095Z,101078.67
2018-02-04T06:42:30.418Z,101079.80
2018-02-04T06:44:58.674Z,101084.24
2018-02-04T06:47:27.020Z,101086.25
2018-02-04T06:49:55.311Z,101091.64
2018-02-04T06:52:23.710Z,101092.42
2018-02-04T06:54:52.013Z,101103.31
2018-02-04T06:57:20.477Z,101110.92
2018-02-04T06:59:48.776Z,101114.52
2018-02-04T07:02:17.127Z,101119.62
2018-02-04T07:04:45.430Z,101127.34
2018-02-04T07:07:13.826Z,101127.44
2018-02-04T07:09:42.132Z,101128.98
2018-02-04T07:12:10.535Z,101140.42
2018-02-04T07:14:38.802Z,101139.08
2018-02-04T07:17:07.302Z,101145.48
2018-02-04T07:19:35.614Z,101151.44
2018-02-04T07:22:04.290Z,101157.16
2018-02-04T07:24:32.567Z,101168.92
2018-02-04T07:27:00.878Z,101171.84
2018-02-04T07:29:29.185Z,101176.23
2018-02-04T07:31:57.521Z,101175.57
2018-02-04T07:34:26.038Z,101177.88
2018-02-04T07:36:54.539Z,101187.64
2018-02-04T07:39:22.863Z,101180.95
2018-02-04T07:41:51.314Z,101186.27
2018-02-04T07:44:20.310Z,101188.38
2018-02-04T07:46:48.628Z,101189.08
2018-02-04T07:49:17.503Z,101186.91
2018-02-04T07:51:45.952Z,101190.50
2018-02-04T07:54:14.231Z,101191.28
2018-02-04T07:56:42.920Z,101199.76
2018-02-04T07:59:11.209Z,101201.11
2018-02-04T08:01:39.610Z,101215.41
2018-02-04T08:04:07.994Z,101224.55
2018-02-04T08:06:36.454Z,101223.40
2018-02-04T08:09:05.212Z,101218.21
2018-02-04T08:11:33.589Z,101227.33
2018-02-04T08:14:02.062Z,101236.85
2018-02-04T08:16:30.387Z,101240.28
2018-02-04T08:18:58.681Z,101242.90
2018-02-04T08:21:27.001Z,101250.64
2018-02-04T08:23:55.399Z,101245.27
2018-02-04T08:26:23.865Z,101245.58
2018-02-04T08:28:52.162Z,101250.06
2018-02-04T08:31:20.489Z,101249.59
2018-02-04T08:33:48.931Z,101256.98
2018-02-04T08:36:17.310Z,101256.11
2018-02-04T08:38:45.604Z,101259.17
2018-02-04T08:41:13.918Z,101260.74
2018-02-04T08:43:42.200Z,101270.11
2018-02-04T08:46:10.522Z,101276.47
2018-02-04T08:48:39.010Z,101273.45
2018-02-04T08:51:07.524Z,101279.23
2018-02-04T08:53:35.827Z,101274.09
2018-02-04T08:56:04.330Z,101282.94
2018-02-04T08:58:32.614Z,101284.70
2018-02-04T09:01:00.920Z,101281.05
2018-02-04T09:03:29.295Z,101267.16
2018-02-04T09:05:57.645Z,101296.95
2018-02-04T09:08:26.035Z,101297.24
2018-02-04T09:10:54.573Z,101303.02
2018-02-04T09:13:22.889Z,101308.25
2018-02-04T09:15:51.251Z,101308.23
2018-02-04T09:18:19.500Z,101310.83
2018-02-04T09:20:47.790Z,101312.91
2018-02-04T09:23:16.099Z,101322.86
2018-02-04T09:25:44.422Z,101321.34
2018-02-04T09:28:12.714Z,101327.69
2018-02-04T09:30:41.167Z,101329.24
2018-02-04T09:33:09.506Z,101340.53
2018-02-04T09:35:37.909Z,101337.48
2018-02-04T09:38:06.191Z,101341.52
2018-02-04T09:40:34.663Z,101344.14
2018-02-04T09:43:02.964Z,101344.45
2018-02-04T09:45:31.396Z,101351.21
2018-02-04T09:47:59.955Z,101356.55
2018-02-04T09:50:28.322Z,101353.33
2018-02-04T09:52:56.628Z,101357.38
2018-02-04T09:55:24.935Z,101363.91
2018-02-04T09:57:53.263Z,101365.54
2018-02-04T10:00:21.631Z,101368.59
2018-02-04T10:02:50.061Z,101375.77
2018-02-04T10:05:19.194Z,101376.25
2018-02-04T10:07:47.485Z,101378.48
2018-02-04T10:10:16.232Z,101377.09
2018-02-04T10:12:44.542Z,101382.85
2018-02-04T10:15:12.893Z,101392.86
2018-02-04T10:17:41.236Z,101389.84
2018-02-04T10:20:09.574Z,101386.30
2018-02-04T10:22:37.856Z,101401.23
2018-02-04T10:25:06.322Z,101395.39
2018-02-04T10:27:36.160Z,101395.93
2018-02-04T10:30:04.514Z,101392.77
2018-02-04T10:32:32.864Z,101402.33
2018-02-04T10:35:01.251Z,101403.64
2018-02-04T10:37:29.738Z,101407.18
2018-02-04T10:39:57.994Z,101410.68
2018-02-04T10:42:26.329Z,101413.13
2018-02-04T10:44:54.763Z,101412.00
2018-02-04T10:47:25.964Z,101412.51
2018-02-04T10:49:54.246Z,101414.81
2018-02-04T10:52:22.580Z,101405.99
2018-02-04T10:54:51.124Z,101400.53
2018-02-04T10:57:20.568Z,101414.20
2018-02-04T10:59:50.171Z,101392.11
2018-02-04T11:02:18.496Z,101392.34
2018-02-04T11:04:46.881Z,101391.25
2018-02-04T11:07:15.235Z,101414.31
2018-02-04T11:09:43.546Z,101378.81
2018-02-04T11:12:11.936Z,101390.05
2018-02-04T11:14:40.353Z,101411.30
2018-02-04T11:17:08.742Z,101431.27
2018-02-04T11:19:37.072Z,101416.27
2018-02-04T11:22:05.417Z,101397.72
2018-02-04T11:24:33.807Z,101406.41
2018-02-04T11:27:02.143Z,101424.53
2018-02-04T11:29:30.509Z,101421.33
2018-02-04T11:31:58.815Z,101416.19
2018-02-04T11:34:27.254Z,101415.59
2018-02-04T11:36:55.992Z,101385.70
2018-02-04T11:39:24.271Z,101392.25
2018-02-04T11:41:52.695Z,101405.27
2018-02-04T11:44:21.300Z,101385.77
2018-02-04T11:46:49.655Z,101399.17
2018-02-04T11:49:18.016Z,101449.30
2018-02-04T11:51:46.443Z,101428.57
2018-02-04T11:54:16.723Z,101431.39
2018-02-04T11:56:45.991Z,101424.09
2018-02-04T11:59:14.312Z,101397.73
2018-02-04T12:01:42.623Z,101420.41
2018-02-04T12:04:11.164Z,101427.89
2018-02-04T12:06:39.619Z,101419.93
2018-02-04T12:09:07.968Z,101431.02
2018-02-04T12:11:36.284Z,101423.55
2018-02-04T12:14:04.770Z,101431.86
2018-02-04T12:16:33.188Z,101426.25
2018-02-04T12:19:01.748Z,101445.47
2018-02-04T12:21:30.074Z,101453.32
2018-02-04T12:23:59.074Z,101458.59
2018-02-04T12:26:27.400Z,101458.95
2018-02-04T12:28:55.921Z,101468.09
2018-02-04T12:31:24.367Z,101477.70
2018-02-04T12:33:52.739Z,101466.70
2018-02-04T12:36:21.141Z,101484.63
2018-02-04T12:38:49.419Z,101481.62
2018-02-04T12:41:17.738Z,101481.55
2018-02-04T12:43:46.220Z,101482.73
2018-02-04T12:46:14.808Z,101480.33
2018-02-04T12:48:43.407Z,101487.85
2018-02-04T12:51:11.768Z,101481.09
2018-02-04T12:53:40.164Z,101488.14
2018-02-04T12:56:08.608Z,101490.02
2018-02-04T12:58:36.901Z,101498.69
2018-02-04T13:01:05.275Z,101502.48
2018-02-04T13:03:40.494Z,101501.61
2018-02-04T13:06:09.032Z,101511.91
2018-02-04T13:08:37.359Z,101510.87
2018-02-04T13:11:05.947Z,101518.48
2018-02-04T13:13:34.436Z,101521.16
2018-02-04T13:16:03.021Z,101511.96
2018-02-04T13:18:31.523Z,101520.27
2018-02-04T13:20:59.866Z,101526.47
2018-02-04T13:23:28.193Z,101523.13
2018-02-04T13:25:56.574Z,101528.47
2018-02-04T13:28:24.962Z,101533.44
2018-02-04T13:30:53.367Z,101531.84
2018-02-04T13:33:21.781Z,101536.29
2018-02-04T13:35:50.193Z,101548.52
2018-02-04T13:38:18.523Z,101539.66
2018-02-04T13:40:46.869Z,101553.48
2018-02-04T13:43:15.214Z,101560.62
2018-02-04T13:45:43.546Z,101567.48
2018-02-04T13:48:11.830Z,101571.05
2018-02-04T13:50:40.236Z,101573.86
2018-02-04T13:53:08.594Z,101574.84
2018-02-04T13:55:37.068Z,101592.48
2018-02-04T13:58:05.454Z,101583.51
2018-02-04T14:00:34.100Z,101576.00
2018-02-04T14:03:02.452Z,101580.33
2018-02-04T14:05:30.862Z,101590.11
2018-02-04T14:07:59.334Z,101595.04
2018-02-04T14:10:27.671Z,101592.69
2018-02-04T14:12:56.090Z,101597.62
2018-02-04T14:15:24.416Z,101603.95
2018-02-04T14:17:59.419Z,101602.47
2018-02-04T14:20:27.736Z,101607.63
2018-02-04T14:22:56.054Z,101616.77
2018-02-04T14:25:24.551Z,101628.23
2018-02-04T14:27:52.853Z,101634.22
2018-02-04T14:30:21.232Z,101628.92
2018-02-04T14:32:49.657Z,101632.07
2018-02-04T14:35:18.018Z,101645.95
2018-02-04T14:37:46.331Z,101651.17
2018-02-04T14:40:14.791Z,101655.98
2018-02-04T14:42:43.203Z,101659.11
2018-02-04T14:45:11.518Z,101652.90
2018-02-04T14:47:39.794Z,101653.38
2018-02-04T14:50:08.117Z,101662.77
2018-02-04T14:52:36.516Z,101666.44
2018-02-04T14:55:04.811Z,101669.02
2018-02-04T14:57:33.342Z,101668.81
2018-02-04T15:00:01.687Z,101670.43
2018-02-04T15:02:30.187Z,101671.13
2018-02-04T15:04:58.498Z,101679.95
2018-02-04T15:07:26.931Z,101678.27
2018-02-04T15:09:55.252Z,101685.33
2018-02-04T15:12:23.600Z,101685.39
2018-02-04T15:14:52.144Z,101686.61
2018-02-04T15:17:20.483Z,101692.16
2018-02-04T15:19:48.759Z,101706.69
2018-02-04T15:22:17.206Z,101708.36
2018-02-04T15:24:45.504Z,101709.67
2018-02-04T15:27:14.650Z,101715.45
2018-02-04T15:29:45.387Z,101723.70
2018-02-04T15:32:13.951Z,101727.34
2018-02-04T15:34:42.464Z,101729.00
2018-02-04T15:37:10.908Z,101738.00
2018-02-04T15:39:39.207Z,101737.38
2018-02-04T15:42:07.760Z,101738.10
2018-02-04T15:44:36.170Z,101744.36
2018-02-04T15:47:04.715Z,101747.11
2018-02-04T15:49:33.060Z,101752.33
2018-02-04T15:52:01.623Z,101754.31
2018-02-04T15:54:30.130Z,101758.11
2018-02-04T15:56:58.632Z,101759.27
2018-02-04T15:59:27.030Z,101770.86
2018-02-04T16:01:55.462Z,101776.26
2018-02-04T16:04:23.813Z,101771.86
2018-02-04T16:06:52.351Z,101774.72
2018-02-04T16:09:20.714Z,101773.69
2018-02-04T16:11:49.060Z,101781.60
2018-02-04T16:14:17.421Z,101786.39
2018-02-04T16:16:48.604Z,101785.98
2018-02-04T16:19:17.041Z,101790.23
2018-02-04T16:21:45.366Z,101790.34
2018-02-04T16:24:13.807Z,101800.02
2018-02-04T16:26:42.131Z,101808.23
2018-02-04T16:29:10.434Z,101808.45
2018-02-04T16:31:38.754Z,101814.70
2018-02-04T16:34:07.063Z,101815.55
2018-02-04T16:36:35.373Z,101817.61
2018-02-04T16:39:03.738Z,101812.51
2018-02-04T16:41:32.072Z,101816.28
2018-02-04T16:44:00.426Z,101815.32
2018-02-04T16:46:28.735Z,101815.02
2018-02-04T16:48:57.206Z,101824.16
2018-02-04T16:51:25.604Z,101828.12
2018-02-04T16:53:54.208Z,101833.13
2018-02-04T16:56:22.556Z,101839.35
2018-02-04T16:58:50.875Z,101841.84
2018-02-04T17:01:19.217Z,101844.16
2018-02-04T17:03:47.510Z,101852.98
2018-02-04T17:06:15.966Z,101849.66
2018-02-04T17:08:44.336Z,101854.86
2018-02-04T17:11:13.052Z,101855.91
2018-02-04T17:13:41.319Z,101863.51
2018-02-04T17:16:09.883Z,101870.04
2018-02-04T17:18:38.194Z,101874.53
2018-02-04T17:21:06.583Z,101877.12
2018-02-04T17:23:34.944Z,101877.33
2018-02-04T17:26:03.409Z,101883.66
2018-02-04T17:28:31.820Z,101882.16
2018-02-04T17:31:01.121Z,101882.17
2018-02-04T17:33:30.468Z,101890.66
2018-02-04T17:35:59.298Z,101892.09
2018-02-04T17:38:27.842Z,101897.17
2018-02-04T17:40:58.639Z,101895.44
2018-02-04T17:43:28.463Z,101907.89
2018-02-04T17:45:57.964Z,101905.95
2018-02-04T17:48:26.314Z,101911.03
2018-02-04T17:50:54.971Z,101915.94
2018-02-04T17:53:23.470Z,101926.03
2018-02-04T17:55:56.529Z,101926.61
2018-02-04T17:58:32.987Z,101933.09
2018-02-04T18:01:02.344Z,101937.14
2018-02-04T18:03:30.803Z,101936.71
2018-02-04T18:06:00.674Z,101946.52
2018-02-04T18:08:29.354Z,101949.23
2018-02-04T18:10:57.752Z,101949.66
2018-02-04T18:13:26.735Z,101952.55
2018-02-04T18:15:55.076Z,101960.04
2018-02-04T18:18:24.410Z,101962.02
2018-02-04T18:20:52.783Z,101962.84
2018-02-04T18:23:21.127Z,101966.83
2018-02-04T18:25:49.505Z,101965.92
2018-02-04T18:28:18.035Z,101960.78
2018-02-04T18:30:46.561Z,101965.95
2018-02-04T18:33:14.915Z,101971.14
2018-02-04T18:35:43.315Z,101969.31
2018-02-04T18:38:11.766Z,101974.58
2018-02-04T18:40:40.090Z,101977.52
2018-02-04T18:43:09.070Z,101977.45
2018-02-04T18:45:37.419Z,101976.48
2018-02-04T18:48:05.767Z,101980.70
2018-02-04T18:50:34.187Z,101987.62
2018-02-04T18:53:02.528Z,101986.75
2018-02-04T18:55:30.916Z,101986.27
2018-02-04T18:57:59.508Z,101988.69
2018-02-04T19:00:28.240Z,101998.82
2018-02-04T19:02:56.795Z,101990.45
2018-02-04T19:05:26.031Z,102000.66
2018-02-04T19:07:55.132Z,102002.97
2018-02-04T19:10:23.994Z,102002.63
2018-02-04T19:12:53.131Z,102005.06
2018-02-04T19:15:21.624Z,102001.62
2018-02-04T19:17:51.691Z,102011.77
2018-02-04T19:20:21.549Z,102013.21
2018-02-04T19:22:51.178Z,102014.02
2018-02-04T19:25:20.413Z,102019.05
2018-02-04T19:27:48.791Z,102025.16
2018-02-04T19:30:17.127Z,102017.78
2018-02-04T19:32:46.380Z,102026.02
2018-02-04T19:35:14.865Z,102030.63
2018-02-04T19:37:43.727Z,102031.43
2018-02-04T19:40:12.064Z,102036.97
2018-02-04T19:42:41.158Z,102041.47
2018-02-04T19:45:09.571Z,102040.83
2018-02-04T19:47:37.912Z,102047.69
2018-02-04T19:50:07.049Z,102045.20
2018-02-04T19:52:35.437Z,102044.31
2018-02-04T19:55:06.491Z,102052.92
2018-02-04T19:57:38.005Z,102055.41
2018-02-04T20:00:06.752Z,102052.02
2018-02-04T20:02:35.155Z,102055.22
2018-02-04T20:05:04.693Z,102053.69
2018-02-04T20:07:32.983Z,102054.94
2018-02-04T20:10:01.832Z,102056.81
2018-02-04T20:12:31.009Z,102068.63
2018-02-04T20:15:00.319Z,102070.78
2018-02-04T20:17:29.726Z,102075.39
2018-02-04T20:19:58.487Z,102073.32
2018-02-04T20:22:27.137Z,102078.53
2018-02-04T20:24:57.238Z,102082.77
2018-02-04T20:27:26.045Z,102073.81
2018-02-04T20:29:54.538Z,102083.75
2018-02-04T20:32:31.858Z,102085.42
2018-02-04T20:35:00.438Z,102081.37
2018-02-04T20:37:28.958Z,102096.57
2018-02-04T20:39:57.500Z,102089.19
2018-02-04T20:42:25.867Z,102091.30
2018-02-04T20:44:54.187Z,102097.11
2018-02-04T20:47:22.571Z,102097.65
2018-02-04T20:49:50.959Z,102104.37
2018-02-04T20:52:19.370Z,102103.61
2018-02-04T20:54:47.699Z,102106.98
2018-02-04T20:57:16.050Z,102105.99
2018-02-04T20:59:44.371Z,102112.98
2018-02-04T21:02:12.952Z,102109.66
2018-02-04T21:04:42.382Z,102116.33
2018-02-04T21:07:11.760Z,102124.19
2018-02-04T21:09:40.222Z,102128.99
2018-02-04T21:12:08.800Z,102130.54
2018-02-04T21:14:37.126Z,102126.77
2018-02-04T21:17:08.263Z,102140.80
2018-02-04T21:19:36.894Z,102136.47
2018-02-04T21:22:05.358Z,102154.98
2018-02-04T21:24:33.789Z,102147.29
2018-02-04T21:27:02.181Z,102156.11
2018-02-04T21:29:30.537Z,102162.27
2018-02-04T21:31:58.864Z,102161.34
2018-02-04T21:34:27.755Z,102165.77
2018-02-04T21:36:56.107Z,102169.44
2018-02-04T21:39:24.658Z,102167.72
2018-02-04T21:41:53.147Z,102164.92
2018-02-04T21:44:21.503Z,102175.19
2018-02-04T21:46:50.000Z,102174.22
2018-02-04T21:49:18.812Z,102165.81
2018-02-04T21:51:47.302Z,102174.02
2018-02-04T21:54:15.739Z,102177.15
2018-02-04T21:56:44.053Z,102182.00
2018-02-04T21:59:12.472Z,102181.99
2018-02-04T22:01:40.942Z,102181.84
2018-02-04T22:04:09.666Z,102182.03
2018-02-04T22:06:37.976Z,102185.91
2018-02-04T22:09:06.631Z,102193.03
2018-02-04T22:11:35.017Z,102197.22
2018-02-04T22:14:03.331Z,102197.59
2018-02-04T22:16:31.659Z,102200.15
2018-02-04T22:19:00.253Z,102212.13
2018-02-04T22:21:28.735Z,102210.72
2018-02-04T22:23:57.146Z,102208.95
2018-02-04T22:26:25.468Z,102211.14
2018-02-04T22:28:53.834Z,102208.63
2018-02-04T22:31:22.481Z,102210.05
2018-02-04T22:33:50.858Z,102210.14
2018-02-04T22:36:20.149Z,102215.23
2018-02-04T22:38:49.456Z,102213.95
2018-02-04T22:41:17.846Z,102214.87
2018-02-04T22:43:46.288Z,102214.55
2018-02-04T22:46:14.595Z,102223.59
2018-02-04T22:48:43.006Z,102229.58
2018-02-04T22:51:11.455Z,102225.42
2018-02-04T22:53:39.756Z,102236.30
2018-02-04T22:56:08.092Z,102232.62
2018-02-04T22:58:36.526Z,102234.41
2018-02-04T23:01:04.996Z,102239.20
2018-02-04T23:03:33.970Z,102242.48
2018-02-04T23:06:02.335Z,102242.48
2018-02-04T23:08:30.685Z,102244.43
2018-02-04T23:11:00.135Z,102255.56
2018-02-04T23:13:28.696Z,102244.75
2018-02-04T23:15:57.166Z,102248.33
2018-02-04T23:18:25.542Z,102242.93
2018-02-04T23:20:54.511Z,102249.13
2018-02-04T23:23:23.292Z,102254.47
2018-02-04T23:25:52.504Z,102248.50
2018-02-04T23:28:20.957Z,102261.88
2018-02-04T23:30:49.835Z,102261.31
2018-02-04T23:33:18.385Z,102265.53
2018-02-04T23:35:47.715Z,102267.16
2018-02-04T23:38:17.078Z,102264.36
2018-02-04T23:40:45.880Z,102263.98
2018-02-04T23:43:14.178Z,102261.84
2018-02-04T23:45:42.523Z,102269.73
2018-02-04T23:48:10.791Z,102263.45
2018-02-04T23:50:39.175Z,102266.72
2018-02-04T23:53:07.539Z,102264.98
2018-02-04T23:55:35.984Z,102268.53
2018-02-04T23:58:04.482Z,102270.53
